sensor_id;sensor_type;location;lat;lon;timestamp;pressure;altitude;pressure_sealevel;temperature;humidity
15477;BME280;7840;42.702;23.296;2022-09-09T00:01:42;95289.88;;;18.35;88.59
15477;BME280;7840;42.702;23.296;2022-09-09T00:04:15;95281.34;;;18.33;88.73
15477;BME280;7840;42.702;23.296;2022-09-09T00:06:54;95280.50;;;18.32;89.03
15477;BME280;7840;42.702;23.296;2022-09-09T00:09:28;95281.53;;;18.36;88.48
15477;BME280;7840;42.702;23.296;2022-09-09T00:12:00;95279.34;;;18.38;89.20
15477;BME280;7840;42.702;23.296;2022-09-09T00:14:37;95284.28;;;18.31;89.77
15477;BME280;7840;42.702;23.296;2022-09-09T00:17:12;95273.50;;;18.36;89.27
15477;BME280;7840;42.702;23.296;2022-09-09T00:19:44;95280.97;;;18.39;88.83
15477;BME280;7840;42.702;23.296;2022-09-09T00:22:18;95267.69;;;17.91;91.43
15477;BME280;7840;42.702;23.296;2022-09-09T00:24:51;95269.06;;;18.08;91.79
15477;BME280;7840;42.702;23.296;2022-09-09T00:27:25;95255.50;;;18.18;90.11
15477;BME280;7840;42.702;23.296;2022-09-09T00:29:57;95254.44;;;18.19;90.11
15477;BME280;7840;42.702;23.296;2022-09-09T00:32:29;95248.97;;;18.24;89.96
15477;BME280;7840;42.702;23.296;2022-09-09T00:35:00;95251.84;;;18.33;89.52
15477;BME280;7840;42.702;23.296;2022-09-09T00:37:29;95243.91;;;18.41;89.34
15477;BME280;7840;42.702;23.296;2022-09-09T00:40:04;95239.84;;;18.44;89.16
15477;BME280;7840;42.702;23.296;2022-09-09T00:42:43;95236.31;;;18.48;89.10
15477;BME280;7840;42.702;23.296;2022-09-09T00:45:25;95235.56;;;18.43;89.86
15477;BME280;7840;42.702;23.296;2022-09-09T00:48:00;95248.84;;;18.34;90.26
15477;BME280;7840;42.702;23.296;2022-09-09T00:50:39;95246.16;;;18.15;91.69
15477;BME280;7840;42.702;23.296;2022-09-09T00:53:20;95246.94;;;17.97;93.72
15477;BME280;7840;42.702;23.296;2022-09-09T00:55:58;95246.72;;;17.69;95.71
15477;BME280;7840;42.702;23.296;2022-09-09T00:58:29;95244.13;;;17.88;95.29
15477;BME280;7840;42.702;23.296;2022-09-09T01:01:00;95247.19;;;18.00;94.64
15477;BME280;7840;42.702;23.296;2022-09-09T01:03:35;95241.94;;;17.90;94.98
15477;BME280;7840;42.702;23.296;2022-09-09T01:06:12;95246.50;;;17.71;96.04
15477;BME280;7840;42.702;23.296;2022-09-09T01:08:58;95257.19;;;17.47;98.16
15477;BME280;7840;42.702;23.296;2022-09-09T01:11:34;95248.94;;;17.43;99.46
15477;BME280;7840;42.702;23.296;2022-09-09T01:14:13;95254.72;;;17.27;100.00
15477;BME280;7840;42.702;23.296;2022-09-09T01:16:45;95266.59;;;17.15;100.00
15477;BME280;7840;42.702;23.296;2022-09-09T01:19:20;95263.28;;;17.00;100.00
15477;BME280;7840;42.702;23.296;2022-09-09T01:22:00;95250.47;;;16.97;100.00
15477;BME280;7840;42.702;23.296;2022-09-09T01:24:36;95244.34;;;17.20;100.00
15477;BME280;7840;42.702;23.296;2022-09-09T01:27:08;95245.72;;;17.41;100.00
15477;BME280;7840;42.702;23.296;2022-09-09T01:29:36;95243.50;;;17.48;100.00
15477;BME280;7840;42.702;23.296;2022-09-09T01:32:39;95250.84;;;17.38;100.00
15477;BME280;7840;42.702;23.296;2022-09-09T01:35:10;95258.09;;;17.37;100.00
15477;BME280;7840;42.702;23.296;2022-09-09T01:37:39;95262.28;;;17.19;100.00
15477;BME280;7840;42.702;23.296;2022-09-09T01:40:08;95273.00;;;16.90;100.00
15477;BME280;7840;42.702;23.296;2022-09-09T01:42:37;95275.53;;;16.77;100.00
15477;BME280;7840;42.702;23.296;2022-09-09T01:45:06;95268.84;;;16.74;100.00
15477;BME280;7840;42.702;23.296;2022-09-09T01:47:34;95269.13;;;17.02;100.00
15477;BME280;7840;42.702;23.296;2022-09-09T01:50:02;95276.19;;;17.21;100.00
15477;BME280;7840;42.702;23.296;2022-09-09T01:52:30;95277.97;;;17.31;100.00
15477;BME280;7840;42.702;23.296;2022-09-09T01:55:00;95271.00;;;17.01;100.00
15477;BME280;7840;42.702;23.296;2022-09-09T01:57:30;95276.19;;;16.92;100.00
15477;BME280;7840;42.702;23.296;2022-09-09T02:00:05;95277.78;;;16.93;100.00
15477;BME280;7840;42.702;23.296;2022-09-09T02:02:39;95266.25;;;17.22;100.00
15477;BME280;7840;42.702;23.296;2022-09-09T02:05:21;95268.59;;;17.29;100.00
15477;BME280;7840;42.702;23.296;2022-09-09T02:07:56;95276.94;;;17.27;100.00
15477;BME280;7840;42.702;23.296;2022-09-09T02:10:28;95276.50;;;17.15;100.00
15477;BME280;7840;42.702;23.296;2022-09-09T02:13:02;95255.28;;;17.23;100.00
15477;BME280;7840;42.702;23.296;2022-09-09T02:15:38;95246.19;;;17.25;100.00
15477;BME280;7840;42.702;23.296;2022-09-09T02:18:11;95245.88;;;17.26;100.00
15477;BME280;7840;42.702;23.296;2022-09-09T02:20:40;95255.75;;;17.31;100.00
15477;BME280;7840;42.702;23.296;2022-09-09T02:23:11;95248.81;;;17.30;100.00
15477;BME280;7840;42.702;23.296;2022-09-09T02:25:41;95256.28;;;17.04;100.00
15477;BME280;7840;42.702;23.296;2022-09-09T02:28:10;95262.19;;;16.66;100.00
15477;BME280;7840;42.702;23.296;2022-09-09T02:30:41;95258.78;;;16.61;100.00
15477;BME280;7840;42.702;23.296;2022-09-09T02:33:11;95261.97;;;16.63;100.00
15477;BME280;7840;42.702;23.296;2022-09-09T02:35:40;95262.66;;;16.39;100.00
15477;BME280;7840;42.702;23.296;2022-09-09T02:38:12;95271.88;;;16.18;100.00
15477;BME280;7840;42.702;23.296;2022-09-09T02:40:40;95279.94;;;16.13;100.00
15477;BME280;7840;42.702;23.296;2022-09-09T02:43:08;95275.31;;;16.24;100.00
15477;BME280;7840;42.702;23.296;2022-09-09T02:45:43;95275.00;;;16.35;100.00
15477;BME280;7840;42.702;23.296;2022-09-09T02:48:20;95277.19;;;16.28;100.00
15477;BME280;7840;42.702;23.296;2022-09-09T02:50:57;95276.00;;;16.00;100.00
15477;BME280;7840;42.702;23.296;2022-09-09T02:53:33;95274.13;;;16.06;100.00
15477;BME280;7840;42.702;23.296;2022-09-09T02:56:08;95266.84;;;16.11;100.00
15477;BME280;7840;42.702;23.296;2022-09-09T02:58:37;95274.06;;;16.11;100.00
15477;BME280;7840;42.702;23.296;2022-09-09T03:01:08;95277.56;;;16.06;100.00
15477;BME280;7840;42.702;23.296;2022-09-09T03:03:36;95282.88;;;16.11;100.00
15477;BME280;7840;42.702;23.296;2022-09-09T03:06:17;95279.69;;;16.09;100.00
15477;BME280;7840;42.702;23.296;2022-09-09T03:08:45;95275.69;;;16.07;100.00
15477;BME280;7840;42.702;23.296;2022-09-09T03:11:15;95280.97;;;16.17;100.00
15477;BME280;7840;42.702;23.296;2022-09-09T03:13:43;95281.47;;;16.24;100.00
15477;BME280;7840;42.702;23.296;2022-09-09T03:16:12;95277.72;;;16.25;100.00
15477;BME280;7840;42.702;23.296;2022-09-09T03:18:41;95277.66;;;16.35;100.00
15477;BME280;7840;42.702;23.296;2022-09-09T03:21:11;95271.25;;;16.36;100.00
15477;BME280;7840;42.702;23.296;2022-09-09T03:23:44;95271.53;;;16.35;100.00
15477;BME280;7840;42.702;23.296;2022-09-09T03:26:12;95264.41;;;16.20;100.00
15477;BME280;7840;42.702;23.296;2022-09-09T03:28:40;95273.94;;;16.31;100.00
15477;BME280;7840;42.702;23.296;2022-09-09T03:31:21;95273.91;;;16.36;100.00
15477;BME280;7840;42.702;23.296;2022-09-09T03:33:49;95265.88;;;16.41;100.00
15477;BME280;7840;42.702;23.296;2022-09-09T03:36:17;95271.69;;;16.49;100.00
15477;BME280;7840;42.702;23.296;2022-09-09T03:38:45;95269.53;;;16.51;100.00
15477;BME280;7840;42.702;23.296;2022-09-09T03:41:13;95271.59;;;16.59;100.00
15477;BME280;7840;42.702;23.296;2022-09-09T03:43:40;95270.50;;;16.65;100.00
15477;BME280;7840;42.702;23.296;2022-09-09T03:46:08;95278.75;;;16.74;100.00
15477;BME280;7840;42.702;23.296;2022-09-09T03:48:37;95277.94;;;16.73;100.00
15477;BME280;7840;42.702;23.296;2022-09-09T03:51:04;95274.75;;;16.71;100.00
15477;BME280;7840;42.702;23.296;2022-09-09T03:53:32;95281.97;;;16.31;100.00
15477;BME280;7840;42.702;23.296;2022-09-09T03:56:00;95283.84;;;16.26;100.00
15477;BME280;7840;42.702;23.296;2022-09-09T03:58:34;95288.34;;;16.35;100.00
15477;BME280;7840;42.702;23.296;2022-09-09T04:01:04;95277.66;;;16.35;100.00
15477;BME280;7840;42.702;23.296;2022-09-09T04:03:32;95277.09;;;16.38;100.00
15477;BME280;7840;42.702;23.296;2022-09-09T04:06:03;95285.97;;;16.34;100.00
15477;BME280;7840;42.702;23.296;2022-09-09T04:08:32;95284.22;;;16.53;100.00
15477;BME280;7840;42.702;23.296;2022-09-09T04:11:00;95280.72;;;16.58;100.00
15477;BME280;7840;42.702;23.296;2022-09-09T04:13:33;95274.75;;;16.66;100.00
15477;BME280;7840;42.702;23.296;2022-09-09T04:16:02;95275.00;;;16.75;100.00
15477;BME280;7840;42.702;23.296;2022-09-09T04:18:30;95275.25;;;16.78;100.00
15477;BME280;7840;42.702;23.296;2022-09-09T04:20:58;95276.34;;;16.72;100.00
15477;BME280;7840;42.702;23.296;2022-09-09T04:23:28;95267.00;;;16.75;100.00
15477;BME280;7840;42.702;23.296;2022-09-09T04:25:57;95281.91;;;16.81;100.00
15477;BME280;7840;42.702;23.296;2022-09-09T04:28:27;95283.34;;;16.63;100.00
15477;BME280;7840;42.702;23.296;2022-09-09T04:30:55;95288.13;;;16.66;100.00
15477;BME280;7840;42.702;23.296;2022-09-09T04:33:24;95281.16;;;16.75;100.00
15477;BME280;7840;42.702;23.296;2022-09-09T04:35:53;95287.78;;;16.83;100.00
15477;BME280;7840;42.702;23.296;2022-09-09T04:38:21;95289.00;;;16.61;100.00
15477;BME280;7840;42.702;23.296;2022-09-09T04:40:51;95286.50;;;16.75;100.00
15477;BME280;7840;42.702;23.296;2022-09-09T04:43:20;95285.28;;;16.91;100.00
15477;BME280;7840;42.702;23.296;2022-09-09T04:45:52;95284.41;;;17.01;100.00
15477;BME280;7840;42.702;23.296;2022-09-09T04:48:20;95283.56;;;17.06;100.00
15477;BME280;7840;42.702;23.296;2022-09-09T04:50:55;95278.63;;;17.18;100.00
15477;BME280;7840;42.702;23.296;2022-09-09T04:53:23;95276.50;;;17.15;100.00
15477;BME280;7840;42.702;23.296;2022-09-09T04:55:53;95268.28;;;17.35;99.57
15477;BME280;7840;42.702;23.296;2022-09-09T04:58:27;95269.63;;;17.57;98.13
15477;BME280;7840;42.702;23.296;2022-09-09T05:01:02;95271.72;;;17.65;96.83
15477;BME280;7840;42.702;23.296;2022-09-09T05:03:29;95275.97;;;17.71;95.88
15477;BME280;7840;42.702;23.296;2022-09-09T05:06:03;95265.34;;;17.85;95.82
15477;BME280;7840;42.702;23.296;2022-09-09T05:08:32;95254.41;;;17.57;95.67
15477;BME280;7840;42.702;23.296;2022-09-09T05:11:01;95255.44;;;17.56;97.11
15477;BME280;7840;42.702;23.296;2022-09-09T05:13:31;95260.50;;;17.87;96.53
15477;BME280;7840;42.702;23.296;2022-09-09T05:15:58;95268.38;;;17.97;94.60
15477;BME280;7840;42.702;23.296;2022-09-09T05:18:26;95274.41;;;18.08;93.63
15477;BME280;7840;42.702;23.296;2022-09-09T05:20:59;95259.44;;;18.25;92.52
15477;BME280;7840;42.702;23.296;2022-09-09T05:23:27;95254.72;;;17.98;92.74
15477;BME280;7840;42.702;23.296;2022-09-09T05:25:56;95256.59;;;18.17;93.39
15477;BME280;7840;42.702;23.296;2022-09-09T05:28:25;95257.97;;;18.14;92.07
15477;BME280;7840;42.702;23.296;2022-09-09T05:30:57;95259.50;;;18.39;91.11
15477;BME280;7840;42.702;23.296;2022-09-09T05:33:25;95255.75;;;18.40;89.73
15477;BME280;7840;42.702;23.296;2022-09-09T05:35:57;95259.94;;;18.46;89.23
15477;BME280;7840;42.702;23.296;2022-09-09T05:38:25;95256.03;;;18.20;88.82
15477;BME280;7840;42.702;23.296;2022-09-09T05:40:53;95259.81;;;18.19;89.50
15477;BME280;7840;42.702;23.296;2022-09-09T05:43:20;95253.38;;;18.52;89.61
15477;BME280;7840;42.702;23.296;2022-09-09T05:45:59;95260.78;;;18.61;86.66
15477;BME280;7840;42.702;23.296;2022-09-09T05:48:29;95274.00;;;18.76;87.86
15477;BME280;7840;42.702;23.296;2022-09-09T05:50:58;95269.53;;;18.85;85.19
15477;BME280;7840;42.702;23.296;2022-09-09T05:53:29;95260.97;;;19.02;84.80
15477;BME280;7840;42.702;23.296;2022-09-09T05:56:02;95266.09;;;18.98;84.03
15477;BME280;7840;42.702;23.296;2022-09-09T05:58:31;95270.91;;;19.01;84.53
15477;BME280;7840;42.702;23.296;2022-09-09T06:01:06;95263.50;;;18.93;83.73
15477;BME280;7840;42.702;23.296;2022-09-09T06:03:35;95278.31;;;19.37;84.05
15477;BME280;7840;42.702;23.296;2022-09-09T06:06:04;95279.56;;;19.58;81.86
15477;BME280;7840;42.702;23.296;2022-09-09T06:08:32;95280.13;;;19.55;80.45
15477;BME280;7840;42.702;23.296;2022-09-09T06:11:04;95277.50;;;19.23;80.48
15477;BME280;7840;42.702;23.296;2022-09-09T06:13:33;95274.34;;;19.48;80.50
15477;BME280;7840;42.702;23.296;2022-09-09T06:16:03;95267.81;;;19.82;79.11
15477;BME280;7840;42.702;23.296;2022-09-09T06:18:30;95266.88;;;20.14;77.53
15477;BME280;7840;42.702;23.296;2022-09-09T06:20:59;95278.47;;;20.37;75.91
15477;BME280;7840;42.702;23.296;2022-09-09T06:23:28;95272.69;;;20.43;73.61
15477;BME280;7840;42.702;23.296;2022-09-09T06:26:03;95269.44;;;20.33;74.52
15477;BME280;7840;42.702;23.296;2022-09-09T06:28:32;95277.94;;;20.12;74.31
15477;BME280;7840;42.702;23.296;2022-09-09T06:31:00;95278.13;;;20.16;74.90
15477;BME280;7840;42.702;23.296;2022-09-09T06:33:33;95271.34;;;20.32;75.11
15477;BME280;7840;42.702;23.296;2022-09-09T06:36:42;95274.03;;;20.68;72.86
15477;BME280;7840;42.702;23.296;2022-09-09T06:39:30;95267.53;;;20.92;72.25
15477;BME280;7840;42.702;23.296;2022-09-09T06:41:58;95262.03;;;20.74;71.70
15477;BME280;7840;42.702;23.296;2022-09-09T06:44:26;95260.56;;;20.91;71.08
15477;BME280;7840;42.702;23.296;2022-09-09T06:46:53;95250.50;;;21.05;69.77
15477;BME280;7840;42.702;23.296;2022-09-09T06:49:35;95260.25;;;21.46;65.98
15477;BME280;7840;42.702;23.296;2022-09-09T06:52:03;95271.16;;;21.80;64.08
15477;BME280;7840;42.702;23.296;2022-09-09T06:54:31;95274.84;;;21.84;63.87
15477;BME280;7840;42.702;23.296;2022-09-09T06:56:58;95269.22;;;22.12;62.97
15477;BME280;7840;42.702;23.296;2022-09-09T06:59:26;95272.25;;;22.36;61.73
15477;BME280;7840;42.702;23.296;2022-09-09T07:01:57;95273.41;;;22.53;60.97
15477;BME280;7840;42.702;23.296;2022-09-09T07:04:27;95279.44;;;22.76;59.16
15477;BME280;7840;42.702;23.296;2022-09-09T07:07:04;95273.56;;;23.00;57.58
15477;BME280;7840;42.702;23.296;2022-09-09T07:09:32;95273.06;;;23.15;56.68
15477;BME280;7840;42.702;23.296;2022-09-09T07:11:59;95264.97;;;23.15;55.81
15477;BME280;7840;42.702;23.296;2022-09-09T07:14:27;95263.84;;;23.16;56.43
15477;BME280;7840;42.702;23.296;2022-09-09T07:16:55;95261.06;;;23.33;56.48
15477;BME280;7840;42.702;23.296;2022-09-09T07:19:24;95263.28;;;23.48;55.90
15477;BME280;7840;42.702;23.296;2022-09-09T07:21:52;95264.00;;;23.66;53.71
15477;BME280;7840;42.702;23.296;2022-09-09T07:24:20;95258.59;;;23.66;54.37
15477;BME280;7840;42.702;23.296;2022-09-09T07:26:48;95264.63;;;24.01;53.86
15477;BME280;7840;42.702;23.296;2022-09-09T07:29:16;95261.84;;;24.19;53.39
15477;BME280;7840;42.702;23.296;2022-09-09T07:31:44;95252.69;;;24.32;52.09
15477;BME280;7840;42.702;23.296;2022-09-09T07:34:11;95251.50;;;24.42;50.84
15477;BME280;7840;42.702;23.296;2022-09-09T07:36:41;95246.16;;;24.33;52.56
15477;BME280;7840;42.702;23.296;2022-09-09T07:39:11;95253.09;;;24.64;51.15
15477;BME280;7840;42.702;23.296;2022-09-09T07:41:58;95256.91;;;25.04;51.64
15477;BME280;7840;42.702;23.296;2022-09-09T07:44:26;95257.19;;;25.24;48.96
15477;BME280;7840;42.702;23.296;2022-09-09T07:46:54;95266.66;;;24.85;48.98
15477;BME280;7840;42.702;23.296;2022-09-09T07:49:24;95266.59;;;24.72;49.83
15477;BME280;7840;42.702;23.296;2022-09-09T07:51:53;95256.94;;;25.17;48.75
15477;BME280;7840;42.702;23.296;2022-09-09T07:54:21;95263.19;;;25.75;48.30
15477;BME280;7840;42.702;23.296;2022-09-09T07:56:50;95263.06;;;26.20;46.93
15477;BME280;7840;42.702;23.296;2022-09-09T07:59:30;95256.59;;;26.49;46.26
15477;BME280;7840;42.702;23.296;2022-09-09T08:01:58;95248.88;;;26.63;45.90
15477;BME280;7840;42.702;23.296;2022-09-09T08:04:28;95242.25;;;26.77;45.35
15477;BME280;7840;42.702;23.296;2022-09-09T08:07:08;95255.19;;;26.95;44.40
15477;BME280;7840;42.702;23.296;2022-09-09T08:09:37;95250.28;;;27.13;44.39
15477;BME280;7840;42.702;23.296;2022-09-09T08:12:06;95255.28;;;27.11;44.19
15477;BME280;7840;42.702;23.296;2022-09-09T08:14:34;95248.09;;;27.19;44.17
15477;BME280;7840;42.702;23.296;2022-09-09T08:17:02;95249.75;;;27.23;44.54
15477;BME280;7840;42.702;23.296;2022-09-09T08:19:30;95254.94;;;27.29;43.50
15477;BME280;7840;42.702;23.296;2022-09-09T08:22:00;95245.59;;;27.58;43.43
15477;BME280;7840;42.702;23.296;2022-09-09T08:24:30;95243.84;;;27.97;42.80
15477;BME280;7840;42.702;23.296;2022-09-09T08:27:01;95252.44;;;28.30;41.87
15477;BME280;7840;42.702;23.296;2022-09-09T08:29:29;95243.41;;;28.46;41.42
15477;BME280;7840;42.702;23.296;2022-09-09T08:31:58;95246.81;;;28.58;41.04
15477;BME280;7840;42.702;23.296;2022-09-09T08:34:32;95245.75;;;28.28;41.30
15477;BME280;7840;42.702;23.296;2022-09-09T08:37:00;95241.03;;;27.46;43.72
15477;BME280;7840;42.702;23.296;2022-09-09T08:39:29;95245.03;;;27.80;43.79
15477;BME280;7840;42.702;23.296;2022-09-09T08:42:12;95237.22;;;28.14;42.99
15477;BME280;7840;42.702;23.296;2022-09-09T08:48:11;95230.59;;;28.66;41.86
15477;BME280;7840;42.702;23.296;2022-09-09T08:50:43;95227.41;;;28.99;41.03
15477;BME280;7840;42.702;23.296;2022-09-09T08:53:17;95229.25;;;29.14;40.52
15477;BME280;7840;42.702;23.296;2022-09-09T08:55:51;95232.81;;;29.37;40.27
15477;BME280;7840;42.702;23.296;2022-09-09T08:58:25;95232.13;;;28.28;41.38
15477;BME280;7840;42.702;23.296;2022-09-09T09:01:02;95228.53;;;27.45;43.75
15477;BME280;7840;42.702;23.296;2022-09-09T09:03:53;95228.31;;;26.78;44.87
15477;BME280;7840;42.702;23.296;2022-09-09T09:06:31;95229.19;;;27.10;45.22
15477;BME280;7840;42.702;23.296;2022-09-09T09:09:08;95230.09;;;27.14;44.96
15477;BME280;7840;42.702;23.296;2022-09-09T09:11:44;95228.22;;;26.75;45.56
15477;BME280;7840;42.702;23.296;2022-09-09T09:14:18;95223.66;;;26.51;46.85
15477;BME280;7840;42.702;23.296;2022-09-09T09:16:53;95227.16;;;26.51;45.63
15477;BME280;7840;42.702;23.296;2022-09-09T09:19:29;95220.31;;;27.25;44.32
15477;BME280;7840;42.702;23.296;2022-09-09T09:22:02;95221.63;;;27.95;43.21
15477;BME280;7840;42.702;23.296;2022-09-09T09:24:44;95225.38;;;28.57;41.84
15477;BME280;7840;42.702;23.296;2022-09-09T09:27:21;95220.84;;;28.65;41.46
15477;BME280;7840;42.702;23.296;2022-09-09T09:30:22;95223.03;;;28.40;42.58
15477;BME280;7840;42.702;23.296;2022-09-09T09:32:55;95226.13;;;28.38;43.35
15477;BME280;7840;42.702;23.296;2022-09-09T09:35:26;95223.00;;;28.55;42.00
15477;BME280;7840;42.702;23.296;2022-09-09T09:37:53;95216.97;;;28.85;42.14
15477;BME280;7840;42.702;23.296;2022-09-09T09:40:22;95216.50;;;28.99;41.49
15477;BME280;7840;42.702;23.296;2022-09-09T09:42:54;95210.66;;;29.42;41.11
15477;BME280;7840;42.702;23.296;2022-09-09T09:45:28;95207.47;;;29.60;40.08
15477;BME280;7840;42.702;23.296;2022-09-09T09:48:02;95207.28;;;29.72;40.26
15477;BME280;7840;42.702;23.296;2022-09-09T09:50:32;95193.63;;;29.72;39.56
15477;BME280;7840;42.702;23.296;2022-09-09T09:53:03;95203.69;;;29.68;40.06
15477;BME280;7840;42.702;23.296;2022-09-09T09:55:33;95201.38;;;29.70;39.87
15477;BME280;7840;42.702;23.296;2022-09-09T09:58:06;95198.84;;;29.58;39.55
15477;BME280;7840;42.702;23.296;2022-09-09T10:00:34;95192.41;;;29.47;40.30
15477;BME280;7840;42.702;23.296;2022-09-09T10:03:02;95187.59;;;29.40;41.11
15477;BME280;7840;42.702;23.296;2022-09-09T10:05:47;95198.66;;;29.47;40.53
15477;BME280;7840;42.702;23.296;2022-09-09T10:08:16;95203.84;;;29.33;40.64
15477;BME280;7840;42.702;23.296;2022-09-09T10:11:22;95197.38;;;28.41;43.16
15477;BME280;7840;42.702;23.296;2022-09-09T10:13:50;95211.16;;;27.65;43.52
15477;BME280;7840;42.702;23.296;2022-09-09T10:16:29;95203.81;;;27.18;45.20
15477;BME280;7840;42.702;23.296;2022-09-09T10:19:05;95210.81;;;26.91;45.51
15477;BME280;7840;42.702;23.296;2022-09-09T10:21:48;95211.09;;;26.46;47.36
15477;BME280;7840;42.702;23.296;2022-09-09T10:24:43;95214.31;;;26.11;47.88
15477;BME280;7840;42.702;23.296;2022-09-09T10:27:51;95210.47;;;26.00;49.44
15477;BME280;7840;42.702;23.296;2022-09-09T10:30:44;95206.88;;;25.96;48.60
15477;BME280;7840;42.702;23.296;2022-09-09T10:33:24;95218.16;;;26.23;48.91
15477;BME280;7840;42.702;23.296;2022-09-09T10:36:01;95206.38;;;26.31;47.98
15477;BME280;7840;42.702;23.296;2022-09-09T10:38:39;95209.22;;;26.62;48.73
15477;BME280;7840;42.702;23.296;2022-09-09T10:46:45;95217.00;;;26.24;49.63
15477;BME280;7840;42.702;23.296;2022-09-09T10:49:33;95219.41;;;26.65;48.90
15477;BME280;7840;42.702;23.296;2022-09-09T10:52:15;95217.34;;;26.75;48.50
15477;BME280;7840;42.702;23.296;2022-09-09T10:54:54;95221.38;;;26.53;48.48
15477;BME280;7840;42.702;23.296;2022-09-09T10:57:31;95220.97;;;26.14;49.32
15477;BME280;7840;42.702;23.296;2022-09-09T11:00:04;95218.88;;;25.95;49.55
15477;BME280;7840;42.702;23.296;2022-09-09T11:02:35;95207.59;;;26.33;49.36
15477;BME280;7840;42.702;23.296;2022-09-09T11:05:10;95208.44;;;26.22;49.94
15477;BME280;7840;42.702;23.296;2022-09-09T11:07:44;95207.00;;;25.87;50.61
15477;BME280;7840;42.702;23.296;2022-09-09T11:10:20;95209.78;;;25.54;52.15
15477;BME280;7840;42.702;23.296;2022-09-09T11:12:53;95212.97;;;25.56;52.63
15477;BME280;7840;42.702;23.296;2022-09-09T11:15:29;95210.44;;;25.27;53.35
15477;BME280;7840;42.702;23.296;2022-09-09T11:18:03;95207.31;;;25.61;53.04
15477;BME280;7840;42.702;23.296;2022-09-09T11:20:34;95199.38;;;25.44;53.06
15477;BME280;7840;42.702;23.296;2022-09-09T11:23:04;95195.53;;;25.94;52.66
15477;BME280;7840;42.702;23.296;2022-09-09T11:25:37;95195.31;;;26.11;52.18
15477;BME280;7840;42.702;23.296;2022-09-09T11:28:27;95189.94;;;26.39;51.40
15477;BME280;7840;42.702;23.296;2022-09-09T11:31:10;95177.84;;;26.25;52.56
15477;BME280;7840;42.702;23.296;2022-09-09T11:34:03;95173.81;;;26.18;52.27
15477;BME280;7840;42.702;23.296;2022-09-09T11:40:14;95162.41;;;26.53;51.38
15477;BME280;7840;42.702;23.296;2022-09-09T11:42:43;95150.34;;;26.66;51.34
15477;BME280;7840;42.702;23.296;2022-09-09T11:45:19;95139.81;;;27.24;49.93
15477;BME280;7840;42.702;23.296;2022-09-09T11:47:53;95132.16;;;27.77;48.21
15477;BME280;7840;42.702;23.296;2022-09-09T11:50:32;95117.88;;;28.19;49.13
15477;BME280;7840;42.702;23.296;2022-09-09T11:56:04;95124.91;;;27.34;49.72
15477;BME280;7840;42.702;23.296;2022-09-09T11:58:40;95130.06;;;27.55;50.04
15477;BME280;7840;42.702;23.296;2022-09-09T12:01:43;95134.19;;;28.00;48.23
15477;BME280;7840;42.702;23.296;2022-09-09T12:04:28;95129.28;;;27.70;48.54
15477;BME280;7840;42.702;23.296;2022-09-09T12:07:00;95121.91;;;27.71;49.56
15477;BME280;7840;42.702;23.296;2022-09-09T12:09:45;95114.09;;;27.38;49.94
15477;BME280;7840;42.702;23.296;2022-09-09T12:12:27;95103.75;;;27.94;50.28
15477;BME280;7840;42.702;23.296;2022-09-09T12:14:59;95104.19;;;27.96;49.16
15477;BME280;7840;42.702;23.296;2022-09-09T12:17:30;95089.84;;;27.80;49.75
15477;BME280;7840;42.702;23.296;2022-09-09T12:20:15;95088.69;;;27.65;49.71
15477;BME280;7840;42.702;23.296;2022-09-09T12:26:08;95097.41;;;27.55;50.27
15477;BME280;7840;42.702;23.296;2022-09-09T12:29:03;95093.78;;;29.02;48.37
15477;BME280;7840;42.702;23.296;2022-09-09T12:31:38;95089.50;;;30.04;45.99
15477;BME280;7840;42.702;23.296;2022-09-09T12:34:16;95075.44;;;30.02;44.69
15477;BME280;7840;42.702;23.296;2022-09-09T12:36:51;95077.59;;;29.89;45.51
15477;BME280;7840;42.702;23.296;2022-09-09T12:39:28;95074.66;;;28.56;47.54
15477;BME280;7840;42.702;23.296;2022-09-09T12:42:03;95074.16;;;28.70;48.08
15477;BME280;7840;42.702;23.296;2022-09-09T12:44:32;95075.22;;;28.88;48.19
15477;BME280;7840;42.702;23.296;2022-09-09T12:47:02;95075.81;;;28.98;46.45
15477;BME280;7840;42.702;23.296;2022-09-09T12:49:53;95078.25;;;29.29;45.99
15477;BME280;7840;42.702;23.296;2022-09-09T12:52:28;95062.56;;;29.72;45.66
15477;BME280;7840;42.702;23.296;2022-09-09T12:55:00;95063.13;;;30.15;44.41
15477;BME280;7840;42.702;23.296;2022-09-09T12:57:33;95075.38;;;30.62;43.24
15477;BME280;7840;42.702;23.296;2022-09-09T13:00:13;95081.56;;;30.92;42.24
15477;BME280;7840;42.702;23.296;2022-09-09T13:02:48;95072.94;;;30.90;41.39
15477;BME280;7840;42.702;23.296;2022-09-09T13:05:37;95075.16;;;29.80;43.85
15477;BME280;7840;42.702;23.296;2022-09-09T13:08:10;95066.81;;;29.20;44.85
15477;BME280;7840;42.702;23.296;2022-09-09T13:10:46;95077.56;;;28.44;46.62
15477;BME280;7840;42.702;23.296;2022-09-09T13:13:16;95059.56;;;28.40;47.20
15477;BME280;7840;42.702;23.296;2022-09-09T13:15:50;95051.81;;;28.42;47.59
15477;BME280;7840;42.702;23.296;2022-09-09T13:18:21;95061.28;;;28.28;47.91
15477;BME280;7840;42.702;23.296;2022-09-09T13:21:00;95057.53;;;27.98;48.62
15477;BME280;7840;42.702;23.296;2022-09-09T13:23:30;95041.63;;;28.00;49.03
15477;BME280;7840;42.702;23.296;2022-09-09T13:26:06;95029.25;;;28.02;48.97
15477;BME280;7840;42.702;23.296;2022-09-09T13:28:48;95032.19;;;27.94;50.00
15477;BME280;7840;42.702;23.296;2022-09-09T13:31:22;95030.59;;;28.31;48.50
15477;BME280;7840;42.702;23.296;2022-09-09T13:33:51;95035.59;;;28.49;48.19
15477;BME280;7840;42.702;23.296;2022-09-09T13:36:29;95027.84;;;28.51;48.12
15477;BME280;7840;42.702;23.296;2022-09-09T13:39:02;95030.91;;;28.07;49.18
15477;BME280;7840;42.702;23.296;2022-09-09T13:44:04;95022.69;;;28.26;48.04
15477;BME280;7840;42.702;23.296;2022-09-09T13:46:35;95007.72;;;28.36;47.71
15477;BME280;7840;42.702;23.296;2022-09-09T13:49:21;95011.75;;;28.65;47.29
15477;BME280;7840;42.702;23.296;2022-09-09T13:52:02;95008.25;;;29.14;46.77